sensor_id;sensor_type;location;lat;lon;timestamp;pressure;altitude;pressure_sealevel;temperature;humidity
30021;BME280;16861;52.294;7.760;2023-08-20T00:00:06;100331.09;;;21.99;61.68
30021;BME280;16861;52.294;7.760;2023-08-20T00:02:36;100336.78;;;21.96;62.17
30021;BME280;16861;52.294;7.760;2023-08-20T00:05:03;100333.38;;;21.94;62.00
30021;BME280;16861;52.294;7.760;2023-08-20T00:07:31;100329.03;;;21.93;62.21
30021;BME280;16861;52.294;7.760;2023-08-20T00:09:58;100325.66;;;21.91;62.09
30021;BME280;16861;52.294;7.760;2023-08-20T00:12:25;100331.16;;;21.90;61.52
30021;BME280;16861;52.294;7.760;2023-08-20T00:15:00;100329.78;;;21.85;61.60
30021;BME280;16861;52.294;7.760;2023-08-20T00:17:37;100342.59;;;21.82;61.69
30021;BME280;16861;52.294;7.760;2023-08-20T00:20:06;100335.56;;;21.81;61.08
30021;BME280;16861;52.294;7.760;2023-08-20T00:22:39;100335.03;;;21.77;61.60
30021;BME280;16861;52.294;7.760;2023-08-20T00:25:08;100341.66;;;21.73;61.60
30021;BME280;16861;52.294;7.760;2023-08-20T00:27:35;100334.72;;;21.70;61.82
30021;BME280;16861;52.294;7.760;2023-08-20T00:30:03;100335.72;;;21.69;62.08
30021;BME280;16861;52.294;7.760;2023-08-20T00:32:30;100326.97;;;21.67;61.93
30021;BME280;16861;52.294;7.760;2023-08-20T00:34:56;100335.16;;;21.66;61.75
30021;BME280;16861;52.294;7.760;2023-08-20T00:37:23;100323.75;;;21.64;61.56
30021;BME280;16861;52.294;7.760;2023-08-20T00:42:30;100331.22;;;21.60;61.77
30021;BME280;16861;52.294;7.760;2023-08-20T00:44:57;100341.09;;;21.59;61.80
30021;BME280;16861;52.294;7.760;2023-08-20T00:47:23;100337.72;;;21.57;61.67
30021;BME280;16861;52.294;7.760;2023-08-20T00:49:50;100339.72;;;21.55;61.75
30021;BME280;16861;52.294;7.760;2023-08-20T00:52:17;100338.03;;;21.54;61.91
30021;BME280;16861;52.294;7.760;2023-08-20T00:54:44;100339.84;;;21.54;62.00
30021;BME280;16861;52.294;7.760;2023-08-20T00:57:17;100347.19;;;21.52;62.76
30021;BME280;16861;52.294;7.760;2023-08-20T00:59:47;100344.22;;;21.55;62.73
30021;BME280;16861;52.294;7.760;2023-08-20T01:02:16;100340.53;;;21.56;62.78
30021;BME280;16861;52.294;7.760;2023-08-20T01:04:42;100340.25;;;21.59;62.81
30021;BME280;16861;52.294;7.760;2023-08-20T01:12:28;100332.94;;;21.61;62.83
30021;BME280;16861;52.294;7.760;2023-08-20T01:14:55;100332.94;;;21.61;62.82
30021;BME280;16861;52.294;7.760;2023-08-20T01:17:23;100333.91;;;21.60;63.21
30021;BME280;16861;52.294;7.760;2023-08-20T01:19:49;100335.75;;;21.59;63.22
30021;BME280;16861;52.294;7.760;2023-08-20T01:22:21;100336.88;;;21.57;63.15
30021;BME280;16861;52.294;7.760;2023-08-20T01:25:21;100339.84;;;21.54;63.22
30021;BME280;16861;52.294;7.760;2023-08-20T01:30:27;100349.28;;;21.58;63.02
30021;BME280;16861;52.294;7.760;2023-08-20T01:32:54;100335.19;;;21.56;63.10
30021;BME280;16861;52.294;7.760;2023-08-20T01:35:24;100335.34;;;21.54;63.16
30021;BME280;16861;52.294;7.760;2023-08-20T01:37:50;100345.22;;;21.54;63.00
30021;BME280;16861;52.294;7.760;2023-08-20T01:40:17;100351.56;;;21.53;62.92
30021;BME280;16861;52.294;7.760;2023-08-20T01:42:44;100350.69;;;21.52;62.93
30021;BME280;16861;52.294;7.760;2023-08-20T01:45:10;100351.69;;;21.51;63.00
30021;BME280;16861;52.294;7.760;2023-08-20T01:47:37;100351.84;;;21.50;62.87
30021;BME280;16861;52.294;7.760;2023-08-20T01:50:04;100356.50;;;21.47;63.12
30021;BME280;16861;52.294;7.760;2023-08-20T01:52:33;100352.13;;;21.46;63.11
30021;BME280;16861;52.294;7.760;2023-08-20T01:54:59;100351.44;;;21.44;62.98
30021;BME280;16861;52.294;7.760;2023-08-20T01:57:26;100349.03;;;21.41;63.20
30021;BME280;16861;52.294;7.760;2023-08-20T01:59:52;100363.41;;;21.40;63.35
30021;BME280;16861;52.294;7.760;2023-08-20T02:02:19;100365.38;;;21.38;63.36
30021;BME280;16861;52.294;7.760;2023-08-20T02:04:46;100360.03;;;21.38;63.28
30021;BME280;16861;52.294;7.760;2023-08-20T02:07:13;100365.38;;;21.38;63.36
30021;BME280;16861;52.294;7.760;2023-08-20T02:09:39;100364.28;;;21.41;63.56
30021;BME280;16861;52.294;7.760;2023-08-20T02:12:06;100366.09;;;21.40;63.57
30021;BME280;16861;52.294;7.760;2023-08-20T02:14:33;100356.06;;;21.42;63.49
30021;BME280;16861;52.294;7.760;2023-08-20T02:17:02;100368.50;;;21.43;63.53
30021;BME280;16861;52.294;7.760;2023-08-20T02:19:29;100355.94;;;21.44;63.40
30021;BME280;16861;52.294;7.760;2023-08-20T02:21:56;100355.09;;;21.43;63.22
30021;BME280;16861;52.294;7.760;2023-08-20T02:24:22;100349.75;;;21.43;63.23
30021;BME280;16861;52.294;7.760;2023-08-20T02:26:49;100350.72;;;21.42;63.44
30021;BME280;16861;52.294;7.760;2023-08-20T02:29:16;100354.41;;;21.41;63.35
30021;BME280;16861;52.294;7.760;2023-08-20T02:31:42;100363.41;;;21.40;63.44
30021;BME280;16861;52.294;7.760;2023-08-20T02:34:09;100367.09;;;21.39;63.79
30021;BME280;16861;52.294;7.760;2023-08-20T02:36:35;100373.41;;;21.38;63.80
30021;BME280;16861;52.294;7.760;2023-08-20T02:39:02;100373.41;;;21.38;63.90
30021;BME280;16861;52.294;7.760;2023-08-20T02:41:30;100379.50;;;21.40;63.89
30021;BME280;16861;52.294;7.760;2023-08-20T02:43:57;100375.81;;;21.41;63.81
30021;BME280;16861;52.294;7.760;2023-08-20T02:46:23;100385.41;;;21.44;63.86
30021;BME280;16861;52.294;7.760;2023-08-20T02:48:50;100385.25;;;21.45;64.03
30021;BME280;16861;52.294;7.760;2023-08-20T02:51:17;100388.66;;;21.47;63.97
30021;BME280;16861;52.294;7.760;2023-08-20T02:53:43;100381.31;;;21.50;63.30
30021;BME280;16861;52.294;7.760;2023-08-20T02:56:10;100384.84;;;21.50;63.66
30021;BME280;16861;52.294;7.760;2023-08-20T02:58:36;100382.03;;;21.52;63.62
30021;BME280;16861;52.294;7.760;2023-08-20T03:01:03;100374.66;;;21.54;63.30
30021;BME280;16861;52.294;7.760;2023-08-20T03:03:29;100372.84;;;21.54;63.29
30021;BME280;16861;52.294;7.760;2023-08-20T03:05:56;100375.34;;;21.56;63.43
30021;BME280;16861;52.294;7.760;2023-08-20T03:08:22;100377.22;;;21.55;63.56
30021;BME280;16861;52.294;7.760;2023-08-20T03:10:49;100375.34;;;21.56;63.60
30021;BME280;16861;52.294;7.760;2023-08-20T03:13:15;100381.72;;;21.55;63.66
30021;BME280;16861;52.294;7.760;2023-08-20T03:15:42;100380.03;;;21.54;63.49
30021;BME280;16861;52.294;7.760;2023-08-20T03:18:08;100387.06;;;21.55;63.36
30021;BME280;16861;52.294;7.760;2023-08-20T03:20:35;100379.16;;;21.53;63.35
30021;BME280;16861;52.294;7.760;2023-08-20T03:23:02;100385.53;;;21.52;63.40
30021;BME280;16861;52.294;7.760;2023-08-20T03:25:28;100387.38;;;21.52;63.12
30021;BME280;16861;52.294;7.760;2023-08-20T03:27:55;100382.97;;;21.51;63.39
30021;BME280;16861;52.294;7.760;2023-08-20T03:30:21;100384.84;;;21.50;63.02
30021;BME280;16861;52.294;7.760;2023-08-20T03:32:48;100391.16;;;21.49;62.94
30021;BME280;16861;52.294;7.760;2023-08-20T03:35:14;100387.66;;;21.48;63.00
30021;BME280;16861;52.294;7.760;2023-08-20T03:37:42;100378.91;;;21.46;63.15
30021;BME280;16861;52.294;7.760;2023-08-20T03:40:09;100374.53;;;21.45;63.32
30021;BME280;16861;52.294;7.760;2023-08-20T03:42:35;100369.31;;;21.44;63.13
30021;BME280;16861;52.294;7.760;2023-08-20T03:45:02;100381.88;;;21.43;63.33
30021;BME280;16861;52.294;7.760;2023-08-20T03:47:29;100367.78;;;21.41;63.38
30021;BME280;16861;52.294;7.760;2023-08-20T03:49:55;100368.78;;;21.40;63.18
30021;BME280;16861;52.294;7.760;2023-08-20T03:52:22;100366.09;;;21.40;63.57
30021;BME280;16861;52.294;7.760;2023-08-20T03:54:48;100367.91;;;21.40;63.37
30021;BME280;16861;52.294;7.760;2023-08-20T03:57:16;100367.09;;;21.39;63.54
30021;BME280;16861;52.294;7.760;2023-08-20T03:59:43;100369.91;;;21.38;63.70
30021;BME280;16861;52.294;7.760;2023-08-20T04:02:11;100377.09;;;21.37;63.43
30021;BME280;16861;52.294;7.760;2023-08-20T04:04:38;100380.75;;;21.36;63.10
30021;BME280;16861;52.294;7.760;2023-08-20T04:07:04;100367.66;;;21.33;63.05
30021;BME280;16861;52.294;7.760;2023-08-20T04:09:32;100372.31;;;21.31;63.16
30021;BME280;16861;52.294;7.760;2023-08-20T04:11:59;100369.78;;;21.29;63.26
30021;BME280;16861;52.294;7.760;2023-08-20T04:14:25;100369.06;;;21.27;63.51
30021;BME280;16861;52.294;7.760;2023-08-20T04:16:52;100367.53;;;21.25;63.25
30021;BME280;16861;52.294;7.760;2023-08-20T04:19:18;100360.47;;;21.24;63.64
30021;BME280;16861;52.294;7.760;2023-08-20T04:21:45;100377.53;;;21.22;63.36
30021;BME280;16861;52.294;7.760;2023-08-20T04:24:11;100362.47;;;21.21;63.28
30021;BME280;16861;52.294;7.760;2023-08-20T04:26:38;100367.09;;;21.19;63.46
30021;BME280;16861;52.294;7.760;2023-08-20T04:29:04;100362.75;;;21.18;63.84
30021;BME280;16861;52.294;7.760;2023-08-20T04:31:32;100360.22;;;21.17;64.01
30021;BME280;16861;52.294;7.760;2023-08-20T04:33:58;100358.38;;;21.17;64.22
30021;BME280;16861;52.294;7.760;2023-08-20T04:36:25;100353.03;;;21.17;64.82
30021;BME280;16861;52.294;7.760;2023-08-20T04:38:51;100361.75;;;21.19;64.42
30021;BME280;16861;52.294;7.760;2023-08-20T04:41:18;100366.13;;;21.20;64.80
30021;BME280;16861;52.294;7.760;2023-08-20T04:43:44;100369.66;;;21.21;64.54
30021;BME280;16861;52.294;7.760;2023-08-20T04:46:14;100371.19;;;21.24;64.82
30021;BME280;16861;52.294;7.760;2023-08-20T04:48:41;100371.19;;;21.24;64.79
30021;BME280;16861;52.294;7.760;2023-08-20T04:51:07;100369.22;;;21.26;64.87
30021;BME280;16861;52.294;7.760;2023-08-20T04:53:34;100383.16;;;21.29;64.85
30021;BME280;16861;52.294;7.760;2023-08-20T04:56:00;100386.53;;;21.31;64.85
30021;BME280;16861;52.294;7.760;2023-08-20T04:58:27;100390.75;;;21.34;64.91
30021;BME280;16861;52.294;7.760;2023-08-20T05:00:53;100381.63;;;21.37;64.83
30021;BME280;16861;52.294;7.760;2023-08-20T05:03:20;100386.66;;;21.40;64.94
30021;BME280;16861;52.294;7.760;2023-08-20T05:05:50;100396.41;;;21.41;65.03
30021;BME280;16861;52.294;7.760;2023-08-20T05:08:17;100389.75;;;21.45;64.71
30021;BME280;16861;52.294;7.760;2023-08-20T05:10:43;100394.97;;;21.46;64.41
30021;BME280;16861;52.294;7.760;2023-08-20T05:13:10;100399.19;;;21.49;64.82
30021;BME280;16861;52.294;7.760;2023-08-20T05:15:36;100398.22;;;21.50;64.59
30021;BME280;16861;52.294;7.760;2023-08-20T05:18:03;100401.72;;;21.51;64.82
30021;BME280;16861;52.294;7.760;2023-08-20T05:20:30;100397.09;;;21.53;64.78
30021;BME280;16861;52.294;7.760;2023-08-20T05:22:56;100401.47;;;21.54;64.93
30021;BME280;16861;52.294;7.760;2023-08-20T05:25:23;100397.78;;;21.55;64.71
30021;BME280;16861;52.294;7.760;2023-08-20T05:27:49;100405.53;;;21.58;64.90
30021;BME280;16861;52.294;7.760;2023-08-20T05:30:16;100406.22;;;21.60;64.81
30021;BME280;16861;52.294;7.760;2023-08-20T05:32:42;100407.81;;;21.63;65.08
30021;BME280;16861;52.294;7.760;2023-08-20T05:35:09;100413.84;;;21.65;64.88
30021;BME280;16861;52.294;7.760;2023-08-20T05:37:35;100410.16;;;21.66;64.81
30021;BME280;16861;52.294;7.760;2023-08-20T05:40:02;100410.75;;;21.69;64.96
30021;BME280;16861;52.294;7.760;2023-08-20T05:42:29;100409.59;;;21.72;65.10
30021;BME280;16861;52.294;7.760;2023-08-20T05:44:55;100411.88;;;21.77;65.01
30021;BME280;16861;52.294;7.760;2023-08-20T05:47:21;100411.59;;;21.80;65.10
30021;BME280;16861;52.294;7.760;2023-08-20T05:49:48;100410.31;;;21.84;65.29
30021;BME280;16861;52.294;7.760;2023-08-20T05:52:14;100410.03;;;21.87;65.29
30021;BME280;16861;52.294;7.760;2023-08-20T05:54:41;100408.75;;;21.91;65.33
30021;BME280;16861;52.294;7.760;2023-08-20T05:57:08;100406.47;;;21.96;65.31
30021;BME280;16861;52.294;7.760;2023-08-20T05:59:34;100406.16;;;21.99;65.61
30021;BME280;16861;52.294;7.760;2023-08-20T06:02:01;100405.88;;;22.03;65.43
30021;BME280;16861;52.294;7.760;2023-08-20T06:04:28;100396.53;;;22.07;65.34
30021;BME280;16861;52.294;7.760;2023-08-20T06:06:55;100398.78;;;22.11;65.40
30021;BME280;16861;52.294;7.760;2023-08-20T06:09:21;100404.56;;;22.17;65.66
30021;BME280;16861;52.294;7.760;2023-08-20T06:11:48;100400.72;;;22.19;65.20
30021;BME280;16861;52.294;7.760;2023-08-20T06:14:15;100411.03;;;22.24;65.33
30021;BME280;16861;52.294;7.760;2023-08-20T06:16:42;100413.25;;;22.29;65.39
30021;BME280;16861;52.294;7.760;2023-08-20T06:19:08;100410.13;;;22.33;65.50
30021;BME280;16861;52.294;7.760;2023-08-20T06:21:35;100406.31;;;22.36;65.24
30021;BME280;16861;52.294;7.760;2023-08-20T06:24:01;100409.53;;;22.39;65.15
30021;BME280;16861;52.294;7.760;2023-08-20T06:26:28;100410.91;;;22.44;65.33
30021;BME280;16861;52.294;7.760;2023-08-20T06:28:54;100424.03;;;22.47;65.08
30021;BME280;16861;52.294;7.760;2023-08-20T06:31:20;100424.56;;;22.50;65.29
30021;BME280;16861;52.294;7.760;2023-08-20T06:33:47;100426.00;;;22.55;65.32
30021;BME280;16861;52.294;7.760;2023-08-20T06:36:14;100426.69;;;22.57;65.31
30021;BME280;16861;52.294;7.760;2023-08-20T06:38:40;100428.09;;;22.61;65.06
30021;BME280;16861;52.294;7.760;2023-08-20T06:41:07;100432.13;;;22.65;65.15
30021;BME280;16861;52.294;7.760;2023-08-20T06:43:33;100438.06;;;22.69;65.26
30021;BME280;16861;52.294;7.760;2023-08-20T06:46:00;100438.59;;;22.72;64.83
30021;BME280;16861;52.294;7.760;2023-08-20T06:48:26;100441.66;;;22.77;65.07
30021;BME280;16861;52.294;7.760;2023-08-20T06:50:53;100438.69;;;22.81;64.87
30021;BME280;16861;52.294;7.760;2023-08-20T06:53:19;100434.72;;;22.85;64.68
30021;BME280;16861;52.294;7.760;2023-08-20T06:55:46;100437.94;;;22.88;65.00
30021;BME280;16861;52.294;7.760;2023-08-20T06:58:12;100441.16;;;22.92;64.74
30021;BME280;16861;52.294;7.760;2023-08-20T07:00:39;100434.50;;;22.96;64.44
30021;BME280;16861;52.294;7.760;2023-08-20T07:03:05;100440.25;;;23.01;64.45
30021;BME280;16861;52.294;7.760;2023-08-20T07:05:32;100440.63;;;23.07;64.80
30021;BME280;16861;52.294;7.760;2023-08-20T07:07:59;100444.69;;;23.11;64.66
30021;BME280;16861;52.294;7.760;2023-08-20T07:10:25;100441.72;;;23.14;64.56
30021;BME280;16861;52.294;7.760;2023-08-20T07:12:52;100445.78;;;23.18;64.75
30021;BME280;16861;52.294;7.760;2023-08-20T07:15:18;100443.63;;;23.22;64.37
30021;BME280;16861;52.294;7.760;2023-08-20T07:17:45;100446.84;;;23.25;64.51
30021;BME280;16861;52.294;7.760;2023-08-20T07:20:12;100444.72;;;23.29;64.33
30021;BME280;16861;52.294;7.760;2023-08-20T07:22:38;100440.72;;;23.33;64.43
30021;BME280;16861;52.294;7.760;2023-08-20T07:25:05;100447.66;;;23.36;64.34
30021;BME280;16861;52.294;7.760;2023-08-20T07:27:32;100446.34;;;23.40;64.50
30021;BME280;16861;52.294;7.760;2023-08-20T07:29:59;100450.41;;;23.44;64.21
30021;BME280;16861;52.294;7.760;2023-08-20T07:32:25;100449.09;;;23.48;64.10
30021;BME280;16861;52.294;7.760;2023-08-20T07:34:52;100454.84;;;23.53;64.40
30021;BME280;16861;52.294;7.760;2023-08-20T07:37:19;100448.16;;;23.58;64.21
30021;BME280;16861;52.294;7.760;2023-08-20T07:39:47;100458.44;;;23.62;64.53
30021;BME280;16861;52.294;7.760;2023-08-20T07:42:13;100448.06;;;23.67;64.29
30021;BME280;16861;52.294;7.760;2023-08-20T07:44:40;100447.59;;;23.72;64.50
30021;BME280;16861;52.294;7.760;2023-08-20T07:47:06;100454.19;;;23.78;63.99
30021;BME280;16861;52.294;7.760;2023-08-20T07:49:34;100451.19;;;23.81;64.14
30021;BME280;16861;52.294;7.760;2023-08-20T07:52:00;100458.78;;;23.86;64.31
30021;BME280;16861;52.294;7.760;2023-08-20T07:54:27;100452.94;;;23.90;64.06
30021;BME280;16861;52.294;7.760;2023-08-20T07:56:54;100451.47;;;23.96;63.93
30021;BME280;16861;52.294;7.760;2023-08-20T07:59:21;100452.81;;;24.00;63.66
30021;BME280;16861;52.294;7.760;2023-08-20T08:01:47;100456.84;;;24.04;63.61
30021;BME280;16861;52.294;7.760;2023-08-20T08:04:14;100460.91;;;24.08;63.72
30021;BME280;16861;52.294;7.760;2023-08-20T08:06:41;100453.28;;;24.14;63.51
30021;BME280;16861;52.294;7.760;2023-08-20T08:09:46;100460.34;;;24.15;63.85
30021;BME280;16861;52.294;7.760;2023-08-20T08:12:12;100462.72;;;24.26;63.95
30021;BME280;16861;52.294;7.760;2023-08-20T08:14:39;100455.88;;;24.32;63.32
30021;BME280;16861;52.294;7.760;2023-08-20T08:17:06;100464.28;;;24.37;63.64
30021;BME280;16861;52.294;7.760;2023-08-20T08:19:33;100463.66;;;24.43;63.79
30021;BME280;16861;52.294;7.760;2023-08-20T08:22:00;100457.78;;;24.48;63.34
30021;BME280;16861;52.294;7.760;2023-08-20T08:24:26;100464.22;;;24.55;63.40
30021;BME280;16861;52.294;7.760;2023-08-20T08:26:53;100466.28;;;24.62;62.91
30021;BME280;16861;52.294;7.760;2023-08-20T08:29:20;100460.22;;;24.68;63.19
30021;BME280;16861;52.294;7.760;2023-08-20T08:31:46;100464.94;;;24.74;63.26
30021;BME280;16861;52.294;7.760;2023-08-20T08:34:13;100464.16;;;24.82;63.17
30021;BME280;16861;52.294;7.760;2023-08-20T08:36:40;100467.06;;;24.89;63.05
30021;BME280;16861;52.294;7.760;2023-08-20T08:39:07;100467.06;;;24.97;62.62
30021;BME280;16861;52.294;7.760;2023-08-20T08:41:35;100463.69;;;25.03;62.37
30021;BME280;16861;52.294;7.760;2023-08-20T08:44:08;100470.94;;;25.11;62.01
30021;BME280;16861;52.294;7.760;2023-08-20T08:46:36;100469.13;;;25.20;62.75
30021;BME280;16861;52.294;7.760;2023-08-20T08:49:04;100466.44;;;25.28;62.44
30021;BME280;16861;52.294;7.760;2023-08-20T08:51:31;100472.66;;;25.37;62.03
30021;BME280;16861;52.294;7.760;2023-08-20T08:54:00;100461.06;;;25.45;61.92
30021;BME280;16861;52.294;7.760;2023-08-20T08:56:28;100460.03;;;25.54;61.98
30021;BME280;16861;52.294;7.760;2023-08-20T08:58:54;100468.16;;;25.62;61.70
30021;BME280;16861;52.294;7.760;2023-08-20T09:01:21;100470.84;;;25.71;61.59
30021;BME280;16861;52.294;7.760;2023-08-20T09:03:47;100475.22;;;25.80;61.39
30021;BME280;16861;52.294;7.760;2023-08-20T09:06:14;100478.75;;;25.89;61.22
30021;BME280;16861;52.294;7.760;2023-08-20T09:08:41;100482.28;;;25.98;61.49
30021;BME280;16861;52.294;7.760;2023-08-20T09:11:07;100477.84;;;26.05;61.51
30021;BME280;16861;52.294;7.760;2023-08-20T09:13:39;100477.03;;;26.13;61.10
30021;BME280;16861;52.294;7.760;2023-08-20T09:16:07;100478.69;;;26.22;61.03
30021;BME280;16861;52.294;7.760;2023-08-20T09:18:39;100474.47;;;26.28;59.90
30021;BME280;16861;52.294;7.760;2023-08-20T09:21:11;100485.25;;;26.36;60.35
30021;BME280;16861;52.294;7.760;2023-08-20T09:23:38;100495.81;;;26.46;60.72
30021;BME280;16861;52.294;7.760;2023-08-20T09:26:06;100486.00;;;26.53;61.46
30021;BME280;16861;52.294;7.760;2023-08-20T09:28:46;100487.81;;;26.61;60.64
30021;BME280;16861;52.294;7.760;2023-08-20T09:31:13;100487.44;;;26.73;60.18
30021;BME280;16861;52.294;7.760;2023-08-20T09:33:53;100491.31;;;26.78;60.01
30021;BME280;16861;52.294;7.760;2023-08-20T09:36:34;100481.28;;;26.87;59.79
30021;BME280;16861;52.294;7.760;2023-08-20T09:39:02;100490.53;;;27.01;59.54
30021;BME280;16861;52.294;7.760;2023-08-20T09:41:29;100484.91;;;27.11;60.03
30021;BME280;16861;52.294;7.760;2023-08-20T09:43:58;100491.75;;;27.22;59.51
30021;BME280;16861;52.294;7.760;2023-08-20T09:46:27;100489.47;;;27.34;59.32
30021;BME280;16861;52.294;7.760;2023-08-20T09:48:57;100498.00;;;27.46;58.35
30021;BME280;16861;52.294;7.760;2023-08-20T09:51:26;100490.50;;;27.56;59.62
30021;BME280;16861;52.294;7.760;2023-08-20T09:54:02;100490.41;;;27.65;57.34
30021;BME280;16861;52.294;7.760;2023-08-20T09:56:38;100491.66;;;27.77;57.41
30021;BME280;16861;52.294;7.760;2023-08-20T09:59:05;100487.50;;;27.90;58.63
30021;BME280;16861;52.294;7.760;2023-08-20T10:01:32;100487.06;;;28.01;58.77
30021;BME280;16861;52.294;7.760;2023-08-20T10:03:59;100487.25;;;28.15;58.78
30021;BME280;16861;52.294;7.760;2023-08-20T10:06:26;100483.25;;;28.26;57.87
30021;BME280;16861;52.294;7.760;2023-08-20T10:08:54;100483.63;;;28.38;56.96
30021;BME280;16861;52.294;7.760;2023-08-20T10:11:21;100481.50;;;28.48;57.25
30021;BME280;16861;52.294;7.760;2023-08-20T10:13:48;100492.00;;;28.58;57.35
30021;BME280;16861;52.294;7.760;2023-08-20T10:16:17;100488.38;;;28.66;55.45
30021;BME280;16861;52.294;7.760;2023-08-20T10:18:47;100475.91;;;28.71;55.23
30021;BME280;16861;52.294;7.760;2023-08-20T10:21:14;100475.53;;;28.74;54.56
30021;BME280;16861;52.294;7.760;2023-08-20T10:23:41;100476.22;;;28.77;54.78
30021;BME280;16861;52.294;7.760;2023-08-20T10:26:10;100471.59;;;28.77;54.50
30021;BME280;16861;52.294;7.760;2023-08-20T10:28:37;100475.53;;;28.74;54.20
30021;BME280;16861;52.294;7.760;2023-08-20T10:31:08;100469.69;;;28.71;55.31
30021;BME280;16861;52.294;7.760;2023-08-20T10:33:58;100467.59;;;28.73;55.51
30021;BME280;16861;52.294;7.760;2023-08-20T10:36:24;100472.91;;;28.81;55.34
30021;BME280;16861;52.294;7.760;2023-08-20T10:39:04;100466.75;;;28.87;56.31
30021;BME280;16861;52.294;7.760;2023-08-20T10:41:31;100465.03;;;29.02;55.73
30021;BME280;16861;52.294;7.760;2023-08-20T10:44:00;100460.78;;;29.14;55.64
30021;BME280;16861;52.294;7.760;2023-08-20T10:46:28;100464.47;;;29.28;54.59
30021;BME280;16861;52.294;7.760;2023-08-20T10:49:02;100470.19;;;29.40;52.79
30021;BME280;16861;52.294;7.760;2023-08-20T10:51:36;100461.81;;;29.57;53.90
30021;BME280;16861;52.294;7.760;2023-08-20T10:54:07;100466.53;;;29.76;54.61
30021;BME280;16861;52.294;7.760;2023-08-20T10:59:06;100468.75;;;30.23;53.26
30021;BME280;16861;52.294;7.760;2023-08-20T11:01:34;100473.69;;;30.48;52.10
30021;BME280;16861;52.294;7.760;2023-08-20T11:04:02;100472.28;;;30.66;51.19
30021;BME280;16861;52.294;7.760;2023-08-20T11:06:33;100468.19;;;30.84;51.03
30021;BME280;16861;52.294;7.760;2023-08-20T11:09:01;100473.88;;;31.02;50.31
30021;BME280;16861;52.294;7.760;2023-08-20T11:11:29;100477.66;;;31.28;50.55
30021;BME280;16861;52.294;7.760;2023-08-20T11:13:57;100476.88;;;31.55;50.95
30021;BME280;16861;52.294;7.760;2023-08-20T11:16:23;100467.22;;;31.79;49.10
30021;BME280;16861;52.294;7.760;2023-08-20T11:18:52;100474.13;;;32.02;48.73
30021;BME280;16861;52.294;7.760;2023-08-20T11:21:19;100471.56;;;32.21;47.55
30021;BME280;16861;52.294;7.760;2023-08-20T11:23:46;100475.28;;;32.33;48.06
30021;BME280;16861;52.294;7.760;2023-08-20T11:26:17;100465.19;;;32.54;48.41
30021;BME280;16861;52.294;7.760;2023-08-20T11:28:47;100481.56;;;32.86;48.93
30021;BME280;16861;52.294;7.760;2023-08-20T11:31:13;100467.25;;;33.30;49.19
30021;BME280;16861;52.294;7.760;2023-08-20T11:33:40;100470.84;;;33.82;47.63
30021;BME280;16861;52.294;7.760;2023-08-20T11:36:07;100473.84;;;34.36;47.07
30021;BME280;16861;52.294;7.760;2023-08-20T11:38:34;100468.31;;;34.92;47.32
30021;BME280;16861;52.294;7.760;2023-08-20T11:41:00;100475.69;;;35.46;45.86
30021;BME280;16861;52.294;7.760;2023-08-20T11:43:28;100468.56;;;35.93;42.93
30021;BME280;16861;52.294;7.760;2023-08-20T11:45:55;100476.88;;;36.22;40.88
30021;BME280;16861;52.294;7.760;2023-08-20T11:48:22;100472.56;;;36.27;39.72
30021;BME280;16861;52.294;7.760;2023-08-20T11:50:51;100471.38;;;36.10;38.46
30021;BME280;16861;52.294;7.760;2023-08-20T11:53:22;100475.47;;;35.96;39.49
30021;BME280;16861;52.294;7.760;2023-08-20T11:55:50;100460.94;;;35.95;41.03
30021;BME280;16861;52.294;7.760;2023-08-20T11:58:18;100452.94;;;36.06;41.58
30021;BME280;16861;52.294;7.760;2023-08-20T12:00:48;100448.84;;;36.32;39.50
30021;BME280;16861;52.294;7.760;2023-08-20T12:03:18;100466.53;;;36.66;39.85
30021;BME280;16861;52.294;7.760;2023-08-20T12:05:44;100462.44;;;36.97;38.40
30021;BME280;16861;52.294;7.760;2023-08-20T12:08:15;100443.16;;;37.26;37.66
30021;BME280;16861;52.294;7.760;2023-08-20T12:10:43;100449.47;;;37.61;37.47
30021;BME280;16861;52.294;7.760;2023-08-20T12:13:10;100449.06;;;37.92;36.55
30021;BME280;16861;52.294;7.760;2023-08-20T12:15:36;100436.28;;;38.20;35.50
30021;BME280;16861;52.294;7.760;2023-08-20T12:18:05;100442.88;;;38.47;35.80
30021;BME280;16861;52.294;7.760;2023-08-20T12:20:34;100436.31;;;38.75;34.84
30021;BME280;16861;52.294;7.760;2023-08-20T12:23:02;100433.53;;;39.03;34.54
30021;BME280;16861;52.294;7.760;2023-08-20T12:25:31;100439.50;;;39.22;32.96
30021;BME280;16861;52.294;7.760;2023-08-20T12:28:03;100443.94;;;39.28;33.15
30021;BME280;16861;52.294;7.760;2023-08-20T12:30:31;100446.34;;;39.19;32.32
30021;BME280;16861;52.294;7.760;2023-08-20T12:33:02;100441.22;;;39.01;32.60
30021;BME280;16861;52.294;7.760;2023-08-20T12:35:29;100438.59;;;38.83;33.11
30021;BME280;16861;52.294;7.760;2023-08-20T12:37:56;100443.75;;;38.75;32.71
30021;BME280;16861;52.294;7.760;2023-08-20T12:40:22;100439.06;;;38.75;32.89
30021;BME280;16861;52.294;7.760;2023-08-20T12:42:49;100439.69;;;38.82;33.32
30021;BME280;16861;52.294;7.760;2023-08-20T12:45:16;100439.25;;;38.96;32.84
30021;BME280;16861;52.294;7.760;2023-08-20T12:47:42;100445.47;;;39.14;33.12
30021;BME280;16861;52.294;7.760;2023-08-20T12:50:09;100442.31;;;39.32;32.51
30021;BME280;16861;52.294;7.760;2023-08-20T12:52:37;100436.03;;;39.42;30.99
30021;BME280;16861;52.294;7.760;2023-08-20T12:55:04;100434.69;;;39.45;31.17
30021;BME280;16861;52.294;7.760;2023-08-20T12:57:30;100437.16;;;39.46;30.70
30021;BME280;16861;52.294;7.760;2023-08-20T12:59:57;100434.72;;;39.50;30.74
30021;BME280;16861;52.294;7.760;2023-08-20T13:02:24;100423.47;;;39.52;30.60
30021;BME280;16861;52.294;7.760;2023-08-20T13:04:51;100430.09;;;39.56;30.33